YKY weather

Kindersley Airport
Kindersley, Saskatchewan, Canada

Public forecast

Using degrees Celsius for public forecast. Weather courtesy of forecast.io.

Current aviation weather report (METAR) for Kindersley Airport

Retrieved 2020/07/04 10:00 UTC (1 minute ago):

CYKY 041000Z 25015G30KT 200V260 15SM FEW020 SCT130 BKN240 15/12 A2998 RMK SC1AC2CI3 PRESRR SLP149 DENSITY ALT 2800FT

Closest aviation forecast (TAF) to Kindersley Airport

Closest forecast is North Battleford Airport, 82.7 nm (153.2 km) NNE. Retrieved 2020/07/04 06:39 UTC (3 hours ago):

TAF CYQW 040538Z 0406/0418 12008KT P6SM SKC FM041400 12008KT P6SM BKN100 TEMPO 0414/0418 P6SM -SHRA OVC080 BECMG 0414/0416 16012KT RMK FCST BASED ON AUTO OBS NXT FCST BY 041200Z